Strona główna
METAR-TAF:

METAR-TAF

Lotnisko :

Waterbury-Oxford Airport

Oxford, Connecticut, Stany Zjednoczone

Szerokość geograficzna: 41-29N, Długość geograficzna: 073-08W, wysokość: 222 m

Aktualna obserwacja pogody

Raport powstał 14 minut temu, godzina 08:51 UTC
Wiatr 6 kt od północny zachód
Temperatura 14°C
Wilgotność 72%
Ciśnienie 1011 hPa
Widzialność: 16.1 km
bezchmurnie

METAR: KOXC 070851Z 32006KT 10SM CLR 14/09 A2984 RMK AO2 SLP110 T01390094 50002

czas: 05:05 (09:05 UTC)


TAF: brakujący

Obserwacja i prognoza pogody dla ponad 4000 lotnisk (raport METAR i TAF).

Dostępne stacje oznaczono żółtymi i czerwonymi punktami na mapie.

Najedź kursorem aby zobaczyć nazwę stacji.

Kliknij aby zobaczyć obserwacje i prognozy pogody.

Aby zmienić mapę: kliknij na zielony przycisk z czarnym krzyżykiem, aby powiększyć; na zielony przycisk z myślnikiem, aby pomniejszyć; na zielone strzałki, aby przejść do map sąsiednich.


METAR-TAF: